createdAt,value
2018-08-31T00:00:52.571Z,99.99
2018-08-31T00:01:52.600Z,99.99
2018-08-31T00:02:52.689Z,99.99
2018-08-31T00:03:52.657Z,99.99
2018-08-31T00:04:52.683Z,99.99
2018-08-31T00:05:52.711Z,99.99
2018-08-31T00:06:52.738Z,99.99
2018-08-31T00:07:52.767Z,99.99
2018-08-31T00:08:52.796Z,99.99
2018-08-31T00:09:52.825Z,99.99
2018-08-31T00:10:52.853Z,99.99
2018-08-31T00:11:52.881Z,99.99
2018-08-31T00:12:52.907Z,99.99
2018-08-31T00:13:52.937Z,99.99
2018-08-31T00:14:52.962Z,99.99
2018-08-31T00:15:52.991Z,99.99
2018-08-31T00:16:53.017Z,99.99
2018-08-31T00:17:53.046Z,99.99
2018-08-31T00:18:53.075Z,99.99
2018-08-31T00:19:53.103Z,99.99
2018-08-31T00:20:53.129Z,99.99
2018-08-31T00:21:53.161Z,99.99
2018-08-31T00:22:53.189Z,99.99
2018-08-31T00:23:53.216Z,99.99
2018-08-31T00:24:53.241Z,99.99
2018-08-31T00:25:53.270Z,99.99
2018-08-31T00:26:53.300Z,99.99
2018-08-31T00:27:53.329Z,99.99
2018-08-31T00:28:53.354Z,99.99
2018-08-31T00:29:53.381Z,99.99
2018-08-31T00:30:53.412Z,99.99
2018-08-31T00:31:53.441Z,99.99
2018-08-31T00:32:53.467Z,99.99
2018-08-31T00:33:53.496Z,99.99
2018-08-31T00:34:53.524Z,99.99
2018-08-31T00:35:53.552Z,99.99
2018-08-31T00:36:53.586Z,99.99
2018-08-31T00:37:53.606Z,99.99
2018-08-31T00:38:53.635Z,99.99
2018-08-31T00:39:53.663Z,99.99
2018-08-31T00:40:53.691Z,99.99
2018-08-31T00:41:53.715Z,99.99
2018-08-31T00:42:53.744Z,99.99
2018-08-31T00:43:53.772Z,99.99
2018-08-31T00:44:53.803Z,99.99
2018-08-31T00:45:53.827Z,99.99
2018-08-31T00:46:53.855Z,99.99
2018-08-31T00:47:53.885Z,99.99
2018-08-31T00:48:53.910Z,99.99
2018-08-31T00:49:53.948Z,99.99
2018-08-31T00:50:53.970Z,99.99
2018-08-31T00:51:53.995Z,99.99
2018-08-31T00:52:54.024Z,99.99
2018-08-31T00:53:54.053Z,99.99
2018-08-31T00:55:56.714Z,99.99
2018-08-31T00:56:56.704Z,99.99
2018-08-31T00:57:56.732Z,99.99
2018-08-31T00:58:56.757Z,99.99
2018-08-31T00:59:56.788Z,99.99
2018-08-31T01:00:56.815Z,99.99
2018-08-31T01:01:56.841Z,99.99
2018-08-31T01:02:56.871Z,99.99
2018-08-31T01:03:56.896Z,99.99
2018-08-31T01:04:56.930Z,99.99
2018-08-31T01:05:56.954Z,99.99
2018-08-31T01:06:56.982Z,99.99
2018-08-31T01:07:57.010Z,99.99
2018-08-31T01:08:57.035Z,99.99
2018-08-31T01:09:57.063Z,99.99
2018-08-31T01:10:57.093Z,99.99
2018-08-31T01:11:57.118Z,99.99
2018-08-31T01:12:57.149Z,99.99
2018-08-31T01:13:57.176Z,99.99
2018-08-31T01:14:57.202Z,99.99
2018-08-31T01:15:57.237Z,99.99
2018-08-31T01:16:57.263Z,99.99
2018-08-31T01:17:57.288Z,99.99
2018-08-31T01:18:57.313Z,99.99
2018-08-31T01:19:57.346Z,99.99
2018-08-31T01:20:57.369Z,99.99
2018-08-31T01:21:57.400Z,99.99
2018-08-31T01:22:57.424Z,99.99
2018-08-31T01:23:57.454Z,99.99
2018-08-31T01:24:57.482Z,99.99
2018-08-31T01:25:57.509Z,99.99
2018-08-31T01:26:57.537Z,99.99
2018-08-31T01:27:57.567Z,99.99
2018-08-31T01:28:57.594Z,99.99
2018-08-31T01:29:57.624Z,99.99
2018-08-31T01:30:57.650Z,99.99
2018-08-31T01:31:57.676Z,99.99
2018-08-31T01:32:57.708Z,99.99
2018-08-31T01:33:57.733Z,99.99
2018-08-31T01:34:57.760Z,99.99
2018-08-31T01:35:57.792Z,99.99
2018-08-31T01:36:57.815Z,99.99
2018-08-31T01:37:57.844Z,99.99
2018-08-31T01:38:57.872Z,99.99
2018-08-31T01:39:57.896Z,99.99
2018-08-31T01:40:57.929Z,99.99
2018-08-31T01:41:57.956Z,99.99
2018-08-31T01:42:57.983Z,99.99
2018-08-31T01:43:58.008Z,99.99
2018-08-31T01:44:58.039Z,99.99
2018-08-31T01:45:58.064Z,99.99
2018-08-31T01:46:58.091Z,99.99
2018-08-31T01:47:58.121Z,99.99
2018-08-31T01:48:58.149Z,99.99
2018-08-31T01:49:58.174Z,99.99
2018-08-31T01:50:58.205Z,99.99
2018-08-31T01:51:58.231Z,99.99
2018-08-31T01:52:58.260Z,99.99
2018-08-31T01:53:58.285Z,99.99
2018-08-31T01:54:58.313Z,99.99
2018-08-31T01:55:58.342Z,99.99
2018-08-31T01:56:58.371Z,99.99
2018-08-31T01:57:58.399Z,99.99
2018-08-31T01:58:58.427Z,99.99
2018-08-31T01:59:58.453Z,99.99
2018-08-31T02:00:58.481Z,99.99
2018-08-31T02:01:58.507Z,99.99
2018-08-31T02:02:58.538Z,99.99
2018-08-31T02:03:58.594Z,99.99
2018-08-31T02:04:58.592Z,99.99
2018-08-31T02:05:58.621Z,99.99
2018-08-31T02:06:58.645Z,99.99
2018-08-31T02:07:58.673Z,99.99
2018-08-31T02:08:58.704Z,99.99
2018-08-31T02:09:58.733Z,99.99
2018-08-31T02:10:58.757Z,99.99
2018-08-31T02:11:58.786Z,99.99
2018-08-31T02:12:58.811Z,99.99
2018-08-31T02:13:58.842Z,99.99
2018-08-31T02:14:58.869Z,99.99
2018-08-31T02:15:58.895Z,99.99
2018-08-31T02:16:58.925Z,99.99
2018-08-31T02:17:58.956Z,99.99
2018-08-31T02:18:58.981Z,99.99
2018-08-31T02:19:59.008Z,99.99
2018-08-31T02:20:59.033Z,99.99
2018-08-31T02:21:59.061Z,99.99
2018-08-31T02:22:59.089Z,99.99
2018-08-31T02:23:59.118Z,99.99
2018-08-31T02:24:59.145Z,99.99
2018-08-31T02:25:59.172Z,99.99
2018-08-31T02:26:59.198Z,99.99
2018-08-31T02:27:59.230Z,99.99
2018-08-31T02:28:59.258Z,99.99
2018-08-31T02:29:59.281Z,99.99
2018-08-31T02:30:59.312Z,99.99
2018-08-31T02:31:59.340Z,99.99
2018-08-31T02:32:59.366Z,99.99
2018-08-31T02:33:59.395Z,99.99
2018-08-31T02:34:59.420Z,99.99
2018-08-31T02:35:59.448Z,99.99
2018-08-31T02:36:59.474Z,99.99
2018-08-31T02:37:59.502Z,99.99
2018-08-31T02:38:59.533Z,99.99
2018-08-31T02:39:59.560Z,99.99
2018-08-31T02:40:59.588Z,99.99
2018-08-31T02:41:59.612Z,99.99
2018-08-31T02:42:59.642Z,99.99
2018-08-31T02:43:59.668Z,99.99
2018-08-31T02:44:59.697Z,99.99
2018-08-31T02:45:59.725Z,99.99
2018-08-31T02:46:59.753Z,99.99
2018-08-31T02:47:59.780Z,99.99
2018-08-31T02:48:59.809Z,99.99
2018-08-31T02:49:59.832Z,99.99
2018-08-31T02:50:59.865Z,99.99
2018-08-31T02:51:59.888Z,99.99
2018-08-31T02:52:59.916Z,99.99
2018-08-31T02:53:59.946Z,99.99
2018-08-31T02:54:59.972Z,99.99
2018-08-31T02:55:59.998Z,99.99
2018-08-31T02:57:00.028Z,99.99
2018-08-31T02:58:00.055Z,99.99
2018-08-31T02:59:00.082Z,99.99
2018-08-31T03:00:00.107Z,99.99
2018-08-31T03:01:00.136Z,99.99
2018-08-31T03:02:00.163Z,99.99
2018-08-31T03:03:00.191Z,99.99
2018-08-31T03:04:00.221Z,99.99
2018-08-31T03:05:00.243Z,99.99
2018-08-31T03:06:00.271Z,99.99
2018-08-31T03:07:00.301Z,99.99
2018-08-31T03:08:00.330Z,99.99
2018-08-31T03:09:00.352Z,99.99
2018-08-31T03:10:00.383Z,99.99
2018-08-31T03:11:00.408Z,99.99
2018-08-31T03:12:00.439Z,99.99
2018-08-31T03:13:00.466Z,99.99
2018-08-31T03:14:00.492Z,99.99
2018-08-31T03:15:00.520Z,99.99
2018-08-31T03:16:00.548Z,99.99
2018-08-31T03:17:00.571Z,99.99
2018-08-31T03:18:00.599Z,99.99
2018-08-31T03:19:00.626Z,99.99
2018-08-31T03:20:00.656Z,99.99
2018-08-31T03:21:00.684Z,99.99
2018-08-31T03:22:00.711Z,99.99
2018-08-31T03:23:00.739Z,99.99
2018-08-31T03:24:00.767Z,99.99
2018-08-31T03:25:00.807Z,99.99
2018-08-31T03:26:00.819Z,99.99
2018-08-31T03:27:00.846Z,99.99
2018-08-31T03:28:00.875Z,99.99
2018-08-31T03:29:00.904Z,99.99
2018-08-31T03:30:00.933Z,99.99
2018-08-31T03:31:00.954Z,99.99
2018-08-31T03:32:00.982Z,99.99
2018-08-31T03:33:01.011Z,99.99
2018-08-31T03:34:01.036Z,99.99
2018-08-31T03:35:01.065Z,99.99
2018-08-31T03:36:01.092Z,99.99
2018-08-31T03:37:01.274Z,99.99
2018-08-31T03:38:01.147Z,99.99
2018-08-31T03:39:01.176Z,99.99
2018-08-31T03:40:01.208Z,99.99
2018-08-31T03:41:01.228Z,99.99
2018-08-31T03:42:01.255Z,99.99
2018-08-31T03:43:01.286Z,99.99
2018-08-31T03:44:01.310Z,99.99
2018-08-31T03:45:01.338Z,99.99
2018-08-31T03:46:01.367Z,99.99
2018-08-31T03:47:01.396Z,99.99
2018-08-31T03:48:01.422Z,99.99
2018-08-31T03:49:01.447Z,99.99
2018-08-31T03:50:01.475Z,99.99
2018-08-31T03:51:01.503Z,99.99
2018-08-31T03:52:01.533Z,99.99
2018-08-31T03:53:01.557Z,99.99
2018-08-31T03:54:01.585Z,99.99
2018-08-31T03:55:01.613Z,99.99
2018-08-31T03:56:01.643Z,99.99
2018-08-31T03:57:01.668Z,99.99
2018-08-31T03:58:01.695Z,99.99
2018-08-31T03:59:01.727Z,99.99
2018-08-31T04:00:01.753Z,99.99
2018-08-31T04:01:01.777Z,99.99
2018-08-31T04:02:01.804Z,99.99
2018-08-31T04:03:01.834Z,99.99
2018-08-31T04:04:01.863Z,99.99
2018-08-31T04:05:01.913Z,99.99
2018-08-31T04:06:01.917Z,99.99
2018-08-31T04:07:01.942Z,99.99
2018-08-31T04:08:01.969Z,99.99
2018-08-31T04:09:01.999Z,99.99
2018-08-31T04:10:02.027Z,99.99
2018-08-31T04:11:02.070Z,99.99
2018-08-31T04:12:02.080Z,99.99
2018-08-31T04:13:02.105Z,99.99
2018-08-31T04:14:02.134Z,99.99
2018-08-31T04:15:02.227Z,99.99
2018-08-31T04:16:02.196Z,99.99
2018-08-31T04:17:02.221Z,99.99
2018-08-31T04:18:02.244Z,99.99
2018-08-31T04:19:02.273Z,99.99
2018-08-31T04:20:02.301Z,99.99
2018-08-31T04:21:02.329Z,99.99
2018-08-31T04:22:02.355Z,99.99
2018-08-31T04:23:02.389Z,99.99
2018-08-31T04:24:02.412Z,99.99
2018-08-31T04:25:02.440Z,99.99
2018-08-31T04:26:02.468Z,99.99
2018-08-31T04:27:02.496Z,99.99
2018-08-31T04:28:02.524Z,99.99
2018-08-31T04:29:02.551Z,99.99
2018-08-31T04:30:02.580Z,99.99
2018-08-31T04:31:02.606Z,99.99
2018-08-31T04:32:02.634Z,99.99
2018-08-31T04:33:02.658Z,99.99
2018-08-31T04:34:02.690Z,99.99
2018-08-31T04:35:02.714Z,99.99
2018-08-31T04:36:02.742Z,99.99
2018-08-31T04:37:02.774Z,99.99
2018-08-31T04:38:02.800Z,99.99
2018-08-31T04:39:02.828Z,99.99
2018-08-31T04:40:02.853Z,99.99
2018-08-31T04:41:02.879Z,99.99
2018-08-31T04:42:02.907Z,99.99
2018-08-31T04:43:02.935Z,99.99
2018-08-31T04:44:02.964Z,99.99
2018-08-31T04:45:02.990Z,99.99
2018-08-31T04:46:03.018Z,99.99
2018-08-31T04:47:03.050Z,99.99
2018-08-31T04:48:03.077Z,99.99
2018-08-31T04:49:03.103Z,99.99
2018-08-31T04:50:03.129Z,99.99
2018-08-31T04:51:03.157Z,99.99
2018-08-31T04:52:03.187Z,99.99
2018-08-31T04:53:03.213Z,99.99
2018-08-31T04:54:03.241Z,99.99
2018-08-31T04:55:03.269Z,99.99
2018-08-31T04:56:03.296Z,99.99
2018-08-31T04:57:03.332Z,99.99
2018-08-31T04:58:03.349Z,99.99
2018-08-31T04:59:03.380Z,99.99
2018-08-31T05:00:03.404Z,99.99
2018-08-31T05:01:03.434Z,99.99
2018-08-31T05:02:03.463Z,99.99
2018-08-31T05:03:03.487Z,99.99
2018-08-31T05:04:03.518Z,99.99
2018-08-31T05:05:03.542Z,99.99
2018-08-31T05:06:03.573Z,99.99
2018-08-31T05:07:03.597Z,99.99
2018-08-31T05:08:03.628Z,99.99
2018-08-31T05:09:03.653Z,99.99
2018-08-31T05:10:03.680Z,99.99
2018-08-31T05:11:03.709Z,99.99
2018-08-31T05:12:03.738Z,99.99
2018-08-31T05:13:03.765Z,99.99
2018-08-31T05:14:03.793Z,99.99
2018-08-31T05:15:03.818Z,99.99
2018-08-31T05:16:03.900Z,99.99
2018-08-31T05:17:03.876Z,99.99
2018-08-31T05:18:03.902Z,99.99
2018-08-31T05:19:03.932Z,99.99
2018-08-31T05:20:03.958Z,99.99
2018-08-31T05:21:03.987Z,99.99
2018-08-31T05:22:04.020Z,99.99
2018-08-31T05:23:04.133Z,99.99
2018-08-31T05:24:04.073Z,99.99
2018-08-31T05:25:04.138Z,99.99
2018-08-31T05:26:04.178Z,99.99
2018-08-31T05:27:04.194Z,99.99
2018-08-31T05:28:04.234Z,99.99
2018-08-31T05:29:04.226Z,99.99
2018-08-31T05:30:04.252Z,99.99
2018-08-31T05:31:04.264Z,99.99
2018-08-31T05:32:04.297Z,99.99
2018-08-31T05:33:04.318Z,99.99
2018-08-31T05:34:04.401Z,99.99
2018-08-31T05:35:04.375Z,99.99
2018-08-31T05:36:04.406Z,99.99
2018-08-31T05:37:04.428Z,99.99
2018-08-31T05:38:04.458Z,99.99
2018-08-31T05:39:04.487Z,99.99
2018-08-31T05:40:04.514Z,99.99
2018-08-31T05:41:04.540Z,99.99
2018-08-31T05:42:04.566Z,99.99
2018-08-31T05:43:04.597Z,99.99
2018-08-31T05:44:04.625Z,99.99
2018-08-31T05:45:04.649Z,99.99
2018-08-31T05:46:04.679Z,99.99
2018-08-31T05:47:04.708Z,99.99
2018-08-31T05:48:04.733Z,99.99
2018-08-31T05:49:04.760Z,99.99
2018-08-31T05:50:04.792Z,99.99
2018-08-31T05:51:04.828Z,99.99
2018-08-31T05:52:04.849Z,99.99
2018-08-31T05:53:04.872Z,99.99
2018-08-31T05:54:04.901Z,99.99
2018-08-31T05:55:04.928Z,99.99
2018-08-31T05:56:04.957Z,99.99
2018-08-31T05:57:04.988Z,99.99
2018-08-31T05:58:05.011Z,99.99
2018-08-31T05:59:05.045Z,99.99
2018-08-31T06:00:05.069Z,99.99
2018-08-31T06:01:05.102Z,99.99
2018-08-31T06:02:05.163Z,99.99
2018-08-31T06:03:05.154Z,99.99
2018-08-31T06:04:05.181Z,99.99
2018-08-31T06:05:05.210Z,99.99
2018-08-31T06:06:05.241Z,99.99
2018-08-31T06:07:05.264Z,99.99
2018-08-31T06:08:05.295Z,99.99
2018-08-31T06:09:05.323Z,99.99
2018-08-31T06:10:05.349Z,99.99
2018-08-31T06:11:05.379Z,99.99
2018-08-31T06:12:05.403Z,99.99
2018-08-31T06:13:05.431Z,99.99
2018-08-31T06:14:05.461Z,99.99
2018-08-31T06:15:05.491Z,99.99
2018-08-31T06:16:05.516Z,99.99
2018-08-31T06:17:05.544Z,99.99
2018-08-31T06:18:05.574Z,99.99
2018-08-31T06:19:05.602Z,99.99
2018-08-31T06:20:05.627Z,99.99
2018-08-31T06:21:05.752Z,99.99
2018-08-31T06:22:05.684Z,99.99
2018-08-31T06:23:05.715Z,99.99
2018-08-31T06:24:05.741Z,99.99
2018-08-31T06:25:05.772Z,99.99
2018-08-31T06:26:05.799Z,99.99
2018-08-31T06:27:05.875Z,99.99
2018-08-31T06:28:05.857Z,99.99
2018-08-31T06:29:05.884Z,99.99
2018-08-31T06:30:05.912Z,99.99
2018-08-31T06:31:05.937Z,99.99
2018-08-31T06:32:05.967Z,99.99
2018-08-31T06:33:05.997Z,99.99
2018-08-31T06:34:06.026Z,99.99
2018-08-31T06:35:06.051Z,99.99
2018-08-31T06:36:06.080Z,99.99
2018-08-31T06:37:06.111Z,99.99
2018-08-31T06:38:06.140Z,99.99
2018-08-31T06:39:06.165Z,99.99
2018-08-31T06:40:06.194Z,99.99
2018-08-31T06:41:06.224Z,99.99
2018-08-31T06:42:06.250Z,99.99
2018-08-31T06:43:06.281Z,99.99
2018-08-31T06:44:06.307Z,99.99
2018-08-31T06:45:06.336Z,99.99
2018-08-31T06:46:06.364Z,99.99
2018-08-31T06:47:06.395Z,99.99
2018-08-31T06:48:06.422Z,99.99
2018-08-31T06:49:06.449Z,99.99
2018-08-31T06:50:06.480Z,99.99
2018-08-31T06:51:06.509Z,99.77
2018-08-31T06:52:06.538Z,99.29
2018-08-31T06:53:06.566Z,99.19
2018-08-31T06:54:06.595Z,99.19
2018-08-31T06:55:06.629Z,98.76
2018-08-31T06:56:06.652Z,98.14
2018-08-31T06:57:06.682Z,98.05
2018-08-31T06:58:06.711Z,98.19
2018-08-31T06:59:06.736Z,98.10
2018-08-31T07:00:06.766Z,98.28
2018-08-31T07:01:06.794Z,97.52
2018-08-31T07:02:06.822Z,97.14
2018-08-31T07:03:06.854Z,97.52
2018-08-31T07:04:06.884Z,96.66
2018-08-31T07:05:06.912Z,96.47
2018-08-31T07:06:06.945Z,95.26
2018-08-31T07:07:06.970Z,95.26
2018-08-31T07:08:07.001Z,95.56
2018-08-31T07:09:07.027Z,95.26
2018-08-31T07:10:07.055Z,94.69
2018-08-31T07:11:07.088Z,93.35
2018-08-31T07:12:07.144Z,93.21
2018-08-31T07:13:07.146Z,92.63
2018-08-31T07:14:07.176Z,92.72
2018-08-31T07:15:07.204Z,92.63
2018-08-31T07:16:07.234Z,92.54
2018-08-31T07:17:07.266Z,92.54
2018-08-31T07:18:07.293Z,91.86
2018-08-31T07:19:07.323Z,91.24
2018-08-31T07:20:07.356Z,90.56
2018-08-31T07:21:07.382Z,90.28
2018-08-31T07:22:07.412Z,89.12
2018-08-31T07:23:07.441Z,88.79
2018-08-31T07:24:07.474Z,88.31
2018-08-31T07:25:07.504Z,88.21
2018-08-31T07:26:07.531Z,88.07
2018-08-31T07:27:07.562Z,88.45
2018-08-31T07:28:07.595Z,88.40
2018-08-31T07:29:07.623Z,87.15
2018-08-31T07:30:07.653Z,86.68
2018-08-31T07:31:07.686Z,86.10
2018-08-31T07:32:07.768Z,85.57
2018-08-31T07:33:07.746Z,84.85
2018-08-31T07:34:07.783Z,85.28
2018-08-31T07:35:07.809Z,84.60
2018-08-31T07:36:07.841Z,84.56
2018-08-31T07:37:07.869Z,84.12
2018-08-31T07:38:07.900Z,83.45
2018-08-31T07:39:07.941Z,83.16
2018-08-31T07:40:07.962Z,82.53
2018-08-31T07:41:07.992Z,82.34
2018-08-31T07:42:08.021Z,81.82
2018-08-31T07:43:08.054Z,81.38
2018-08-31T07:44:08.088Z,80.84
2018-08-31T07:45:08.114Z,80.65
2018-08-31T07:46:08.147Z,80.65
2018-08-31T07:47:08.178Z,80.36
2018-08-31T07:48:08.213Z,79.25
2018-08-31T07:49:08.243Z,78.77
2018-08-31T07:50:08.274Z,79.88
2018-08-31T07:51:08.307Z,80.84
2018-08-31T07:52:08.337Z,80.80
2018-08-31T07:53:08.370Z,82.15
2018-08-31T07:54:08.406Z,82.53
2018-08-31T07:55:08.433Z,82.24
2018-08-31T07:56:08.464Z,82.73
2018-08-31T07:57:08.500Z,82.15
2018-08-31T07:58:08.529Z,80.94
2018-08-31T07:59:08.566Z,79.98
2018-08-31T08:00:08.595Z,80.07
2018-08-31T08:01:08.625Z,79.92
2018-08-31T08:02:08.662Z,80.11
2018-08-31T08:03:08.691Z,80.11
2018-08-31T08:04:08.723Z,80.17
2018-08-31T08:05:08.752Z,81.04
2018-08-31T08:06:08.788Z,80.60
2018-08-31T08:07:08.821Z,79.98
2018-08-31T08:08:08.851Z,80.36
2018-08-31T08:09:08.884Z,79.53
2018-08-31T08:10:08.917Z,78.13
2018-08-31T08:11:08.948Z,77.94
2018-08-31T08:12:08.983Z,76.88
2018-08-31T08:13:09.015Z,76.59
2018-08-31T08:14:09.047Z,76.44
2018-08-31T08:15:09.077Z,76.44
2018-08-31T08:16:09.118Z,76.11
2018-08-31T08:17:09.142Z,76.31
2018-08-31T08:18:09.180Z,76.59
2018-08-31T08:19:09.209Z,77.75
2018-08-31T08:20:09.244Z,77.17
2018-08-31T08:21:09.276Z,77.08
2018-08-31T08:22:09.311Z,77.26
2018-08-31T08:23:09.342Z,76.50
2018-08-31T08:24:09.377Z,76.21
2018-08-31T08:25:09.406Z,77.46
2018-08-31T08:26:09.443Z,76.59
2018-08-31T08:27:09.475Z,77.90
2018-08-31T08:28:09.537Z,77.51
2018-08-31T08:29:09.539Z,77.61
2018-08-31T08:30:09.574Z,78.48
2018-08-31T08:31:09.609Z,77.90
2018-08-31T08:32:09.640Z,78.09
2018-08-31T08:33:09.670Z,78.38
2018-08-31T08:34:09.706Z,78.86
2018-08-31T08:35:09.740Z,79.44
2018-08-31T08:36:09.773Z,79.05
2018-08-31T08:37:09.802Z,79.05
2018-08-31T08:38:09.838Z,78.28
2018-08-31T08:39:09.869Z,78.48
2018-08-31T08:40:09.902Z,79.79
2018-08-31T08:41:09.934Z,80.94
2018-08-31T08:42:10.028Z,81.32
2018-08-31T08:43:10.003Z,81.61
2018-08-31T08:44:10.031Z,81.96
2018-08-31T08:45:10.067Z,81.48
2018-08-31T08:46:10.097Z,81.76
2018-08-31T08:47:10.128Z,81.61
2018-08-31T08:48:10.209Z,81.57
2018-08-31T08:49:10.193Z,81.57
2018-08-31T08:50:10.226Z,81.57
2018-08-31T08:51:10.263Z,81.96
2018-08-31T08:52:10.293Z,81.42
2018-08-31T08:53:10.321Z,81.76
2018-08-31T08:54:10.360Z,82.15
2018-08-31T08:55:10.385Z,83.64
2018-08-31T08:56:10.462Z,83.26
2018-08-31T08:57:10.448Z,82.68
2018-08-31T08:58:10.509Z,83.07
2018-08-31T08:59:10.515Z,82.97
2018-08-31T09:00:10.546Z,83.26
2018-08-31T09:01:10.575Z,82.92
2018-08-31T09:02:10.607Z,82.34
2018-08-31T09:03:10.641Z,82.10
2018-08-31T09:04:10.674Z,82.59
2018-08-31T09:05:10.703Z,82.01
2018-08-31T09:06:10.735Z,82.59
2018-08-31T09:07:10.769Z,82.73
2018-08-31T09:08:10.797Z,82.34
2018-08-31T09:09:10.825Z,81.96
2018-08-31T09:10:10.862Z,81.92
2018-08-31T09:11:10.890Z,81.76
2018-08-31T09:12:10.952Z,81.86
2018-08-31T09:13:10.950Z,81.09
2018-08-31T09:14:10.985Z,80.90
2018-08-31T09:15:11.015Z,80.36
2018-08-31T09:16:11.045Z,80.36
2018-08-31T09:17:11.075Z,80.27
2018-08-31T09:18:11.108Z,80.17
2018-08-31T09:19:11.136Z,80.27
2018-08-31T09:20:11.193Z,79.69
2018-08-31T09:21:11.200Z,79.88
2018-08-31T09:22:11.229Z,79.02
2018-08-31T09:23:11.263Z,79.25
2018-08-31T09:24:11.295Z,78.53
2018-08-31T09:25:11.326Z,77.76
2018-08-31T09:26:11.357Z,78.15
2018-08-31T09:27:11.387Z,79.88
2018-08-31T09:28:11.417Z,79.21
2018-08-31T09:29:11.448Z,79.98
2018-08-31T09:30:11.478Z,79.88
2018-08-31T09:31:11.512Z,79.69
2018-08-31T09:32:11.547Z,78.44
2018-08-31T09:33:11.575Z,78.30
2018-08-31T09:34:11.602Z,78.83
2018-08-31T09:35:11.636Z,78.25
2018-08-31T09:36:11.668Z,78.25
2018-08-31T09:37:11.696Z,78.34
2018-08-31T09:38:11.784Z,78.44
2018-08-31T09:39:11.759Z,78.53
2018-08-31T09:40:11.790Z,77.38
2018-08-31T09:41:11.821Z,75.65
2018-08-31T09:42:11.851Z,75.27
2018-08-31T09:43:11.882Z,84.06
2018-08-31T09:44:11.914Z,83.33
2018-08-31T09:45:11.944Z,79.19
2018-08-31T09:46:11.979Z,80.58
2018-08-31T09:47:12.010Z,79.90
2018-08-31T09:48:12.037Z,76.06
2018-08-31T09:49:12.068Z,78.59
2018-08-31T09:50:12.103Z,76.38
2018-08-31T09:51:12.133Z,77.15
2018-08-31T09:52:12.162Z,72.43
2018-08-31T09:53:12.194Z,72.63
2018-08-31T09:54:12.226Z,76.13
2018-08-31T09:55:12.257Z,74.88
2018-08-31T09:56:12.289Z,72.56
2018-08-31T09:57:12.321Z,73.43
2018-08-31T09:58:12.351Z,71.50
2018-08-31T09:59:12.380Z,71.60
2018-08-31T10:00:12.414Z,73.05
2018-08-31T10:01:12.442Z,75.10
2018-08-31T10:02:12.477Z,72.69
2018-08-31T10:03:12.509Z,71.06
2018-08-31T10:04:12.537Z,69.90
2018-08-31T10:05:12.571Z,68.80
2018-08-31T10:06:12.601Z,69.38
2018-08-31T10:07:12.633Z,67.13
2018-08-31T10:08:12.664Z,73.01
2018-08-31T10:09:12.695Z,70.35
2018-08-31T10:10:12.729Z,69.19
2018-08-31T10:11:12.760Z,70.09
2018-08-31T10:12:12.788Z,68.84
2018-08-31T10:13:12.829Z,72.63
2018-08-31T10:14:12.854Z,66.75
2018-08-31T10:15:12.884Z,70.13
2018-08-31T10:16:12.918Z,68.81
2018-08-31T10:17:12.951Z,66.08
2018-08-31T10:18:12.980Z,67.04
2018-08-31T10:19:13.015Z,68.59
2018-08-31T10:20:13.045Z,65.37
2018-08-31T10:21:13.077Z,65.14
2018-08-31T10:22:13.110Z,66.78
2018-08-31T10:23:13.140Z,64.18
2018-08-31T10:24:13.175Z,67.13
2018-08-31T10:25:13.209Z,65.72
2018-08-31T10:26:13.276Z,66.49
2018-08-31T10:27:13.269Z,68.26
2018-08-31T10:28:13.303Z,63.47
2018-08-31T10:29:13.332Z,66.11
2018-08-31T10:30:13.399Z,66.20
2018-08-31T10:31:13.400Z,62.57
2018-08-31T10:32:13.432Z,61.60
2018-08-31T10:33:13.460Z,60.03
2018-08-31T10:34:13.494Z,63.28
2018-08-31T10:35:13.527Z,65.24
2018-08-31T10:36:13.562Z,65.27
2018-08-31T10:37:13.591Z,62.98
2018-08-31T10:38:13.623Z,60.09
2018-08-31T10:39:13.660Z,64.43
2018-08-31T10:40:13.744Z,61.95
2018-08-31T10:41:13.723Z,56.93
2018-08-31T10:42:13.754Z,54.49
2018-08-31T10:43:13.788Z,56.32
2018-08-31T10:44:13.822Z,60.09
2018-08-31T10:45:13.852Z,57.87
2018-08-31T10:46:13.887Z,57.09
2018-08-31T10:47:13.922Z,57.19
2018-08-31T10:48:13.955Z,58.47
2018-08-31T10:49:13.992Z,57.38
2018-08-31T10:50:14.024Z,58.64
2018-08-31T10:51:14.053Z,57.67
2018-08-31T10:52:14.091Z,53.59
2018-08-31T10:53:14.124Z,57.96
2018-08-31T10:54:14.158Z,51.65
2018-08-31T10:55:14.199Z,52.23
2018-08-31T10:56:14.226Z,51.46
2018-08-31T10:57:14.260Z,53.59
2018-08-31T10:58:14.294Z,54.68
2018-08-31T10:59:14.328Z,57.87
2018-08-31T11:00:14.362Z,55.47
2018-08-31T11:01:14.395Z,55.55
2018-08-31T11:02:14.427Z,55.57
2018-08-31T11:03:14.464Z,54.32
2018-08-31T11:04:14.497Z,53.45
2018-08-31T11:05:14.532Z,56.45
2018-08-31T11:06:14.566Z,53.13
2018-08-31T11:07:14.598Z,53.11
2018-08-31T11:08:14.632Z,53.75
2018-08-31T11:09:14.669Z,55.08
2018-08-31T11:10:14.700Z,57.20
2018-08-31T11:11:14.734Z,57.62
2018-08-31T11:12:14.772Z,54.84
2018-08-31T11:13:14.915Z,54.55
2018-08-31T11:14:14.838Z,54.50
2018-08-31T11:15:15.004Z,55.15
2018-08-31T11:16:14.906Z,55.15
2018-08-31T11:17:14.943Z,55.44
2018-08-31T11:18:14.977Z,56.01
2018-08-31T11:19:15.015Z,57.14
2018-08-31T11:20:15.047Z,57.82
2018-08-31T11:21:15.092Z,58.01
2018-08-31T11:22:15.114Z,58.40
2018-08-31T11:23:15.145Z,58.69
2018-08-31T11:24:15.180Z,58.59
2018-08-31T11:25:15.212Z,58.40
2018-08-31T11:26:15.249Z,58.97
2018-08-31T11:27:15.284Z,60.42
2018-08-31T11:28:15.314Z,60.68
2018-08-31T11:29:15.350Z,59.43
2018-08-31T11:30:15.382Z,59.69
2018-08-31T11:31:15.414Z,59.97
2018-08-31T11:32:15.453Z,60.17
2018-08-31T11:33:15.482Z,60.17
2018-08-31T11:34:15.517Z,59.30
2018-08-31T11:35:15.547Z,58.82
2018-08-31T11:36:15.583Z,58.15
2018-08-31T11:37:15.615Z,58.05
2018-08-31T11:38:15.649Z,58.53
2018-08-31T11:39:15.679Z,57.79
2018-08-31T11:40:15.711Z,56.59
2018-08-31T11:41:15.743Z,56.11
2018-08-31T11:42:15.775Z,55.46
2018-08-31T11:43:15.855Z,55.49
2018-08-31T11:44:15.841Z,54.91
2018-08-31T11:45:15.877Z,55.56
2018-08-31T11:46:15.909Z,55.70
2018-08-31T11:47:15.945Z,56.95
2018-08-31T11:48:15.973Z,58.08
2018-08-31T11:49:16.006Z,57.98
2018-08-31T11:50:16.039Z,58.08
2018-08-31T11:51:16.073Z,57.92
2018-08-31T11:52:16.106Z,57.53
2018-08-31T11:53:16.136Z,58.08
2018-08-31T11:54:16.168Z,58.08
2018-08-31T11:55:16.251Z,58.59
2018-08-31T11:56:16.236Z,58.56
2018-08-31T11:57:16.266Z,58.88
2018-08-31T11:58:16.300Z,59.23
2018-08-31T11:59:16.334Z,59.14
2018-08-31T12:00:16.365Z,60.10
2018-08-31T12:01:16.449Z,59.72
2018-08-31T12:02:16.428Z,59.43
2018-08-31T12:03:16.465Z,60.20
2018-08-31T12:04:16.500Z,60.20
2018-08-31T12:05:16.526Z,60.00
2018-08-31T12:06:16.557Z,60.39
2018-08-31T12:07:16.592Z,60.49
2018-08-31T12:08:16.623Z,60.87
2018-08-31T12:09:16.659Z,60.23
2018-08-31T12:10:16.688Z,60.23
2018-08-31T12:11:16.723Z,59.94
2018-08-31T12:12:16.752Z,58.65
2018-08-31T12:13:16.784Z,56.16
2018-08-31T12:14:16.819Z,54.72
2018-08-31T12:15:16.848Z,54.33
2018-08-31T12:16:16.884Z,54.46
2018-08-31T12:17:16.918Z,55.04
2018-08-31T12:18:16.945Z,54.72
2018-08-31T12:19:16.978Z,54.82
2018-08-31T12:20:17.012Z,55.23
2018-08-31T12:21:17.043Z,55.04
2018-08-31T12:22:17.077Z,55.59
2018-08-31T12:23:17.112Z,54.94
2018-08-31T12:24:17.144Z,54.55
2018-08-31T12:25:17.176Z,53.59
2018-08-31T12:26:17.254Z,53.03
2018-08-31T12:27:17.244Z,52.81
2018-08-31T12:28:17.274Z,52.40
2018-08-31T12:29:17.309Z,53.08
2018-08-31T12:30:17.342Z,52.89
2018-08-31T12:31:17.375Z,52.72
2018-08-31T12:32:17.409Z,52.04
2018-08-31T12:33:17.438Z,51.75
2018-08-31T12:34:17.474Z,52.62
2018-08-31T12:35:17.508Z,53.47
2018-08-31T12:36:17.541Z,55.20
2018-08-31T12:37:17.572Z,56.62
2018-08-31T12:38:17.605Z,57.49
2018-08-31T12:39:17.639Z,57.46
2018-08-31T12:40:17.670Z,57.56
2018-08-31T12:41:17.706Z,57.78
2018-08-31T12:42:17.736Z,58.36
2018-08-31T12:43:17.773Z,57.78
2018-08-31T12:44:17.835Z,57.78
2018-08-31T12:45:17.837Z,57.71
2018-08-31T12:46:17.870Z,56.13
2018-08-31T12:47:17.904Z,54.80
2018-08-31T12:48:17.937Z,53.57
2018-08-31T12:49:17.972Z,52.70
2018-08-31T12:50:18.007Z,52.87
2018-08-31T12:51:18.039Z,53.74
2018-08-31T12:52:18.075Z,54.61
2018-08-31T12:53:18.105Z,52.77
2018-08-31T12:54:18.138Z,53.52